createdAt,value
2017-12-29T00:00:39.856Z,4.25
2017-12-29T00:01:39.264Z,4.22
2017-12-29T00:02:39.238Z,4.26
2017-12-29T00:03:39.751Z,4.19
2017-12-29T00:04:39.457Z,4.24
2017-12-29T00:05:39.696Z,4.28
2017-12-29T00:06:39.414Z,4.29
2017-12-29T00:07:39.386Z,4.21
2017-12-29T00:08:39.365Z,4.29
2017-12-29T00:09:39.346Z,4.24
2017-12-29T00:10:39.321Z,4.24
2017-12-29T00:11:39.302Z,4.26
2017-12-29T00:12:39.015Z,4.21
2017-12-29T00:13:39.254Z,4.22
2017-12-29T00:14:39.232Z,4.14
2017-12-29T00:15:39.231Z,4.22
2017-12-29T00:16:39.387Z,4.14
2017-12-29T00:17:39.162Z,4.21
2017-12-29T00:18:39.406Z,4.12
2017-12-29T00:19:39.120Z,4.14
2017-12-29T00:20:39.106Z,4.16
2017-12-29T00:21:39.072Z,4.1
2017-12-29T00:22:39.312Z,4.06
2017-12-29T00:23:39.033Z,4.08
2017-12-29T00:24:39.326Z,4.07
2017-12-29T00:25:38.979Z,4.03
2017-12-29T00:26:38.958Z,3.9
2017-12-29T00:27:38.676Z,3.88
2017-12-29T00:28:38.922Z,3.94
2017-12-29T00:29:39.152Z,3.86
2017-12-29T00:30:39.132Z,3.85
2017-12-29T00:31:38.852Z,3.86
2017-12-29T00:32:38.560Z,3.79
2017-12-29T00:33:38.801Z,3.8
2017-12-29T00:34:38.781Z,3.8
2017-12-29T00:35:39.043Z,3.89
2017-12-29T00:36:38.996Z,3.82
2017-12-29T00:37:38.972Z,3.79
2017-12-29T00:38:38.688Z,3.79
2017-12-29T00:39:38.658Z,3.75
2017-12-29T00:40:38.376Z,3.7
2017-12-29T00:41:38.616Z,3.75
2017-12-29T00:42:38.334Z,3.78
2017-12-29T00:43:38.575Z,3.79
2017-12-29T00:44:38.549Z,3.78
2017-12-29T00:45:38.840Z,3.78
2017-12-29T00:46:38.773Z,3.85
2017-12-29T00:47:38.216Z,3.72
2017-12-29T00:48:38.730Z,3.79
2017-12-29T00:49:38.702Z,3.71
2017-12-29T00:50:38.423Z,3.79
2017-12-29T00:51:38.392Z,3.75
2017-12-29T00:52:38.368Z,3.67
2017-12-29T00:53:38.615Z,3.7
2017-12-29T00:54:38.585Z,3.76
2017-12-29T00:55:38.564Z,3.75
2017-12-29T00:56:38.279Z,3.75
2017-12-29T00:57:38.304Z,3.64
2017-12-29T00:58:38.499Z,3.76
2017-12-29T00:59:38.214Z,3.64
2017-12-29T01:00:38.191Z,3.76
2017-12-29T01:01:37.903Z,3.61
2017-12-29T01:02:38.145Z,3.64
2017-12-29T01:03:38.117Z,3.64
2017-12-29T01:04:38.092Z,3.68
2017-12-29T01:05:38.335Z,3.64
2017-12-29T01:06:38.056Z,3.64
2017-12-29T01:07:38.091Z,3.61
2017-12-29T01:08:38.005Z,3.68
2017-12-29T01:09:37.992Z,3.64
2017-12-29T01:10:37.695Z,3.67
2017-12-29T01:11:37.676Z,3.62
2017-12-29T01:12:37.913Z,3.64
2017-12-29T01:13:37.887Z,3.68
2017-12-29T01:14:37.864Z,3.65
2017-12-29T01:15:38.105Z,3.68
2017-12-29T01:16:37.557Z,3.67
2017-12-29T01:17:38.071Z,3.61
2017-12-29T01:18:38.042Z,3.68
2017-12-29T01:19:37.757Z,3.64
2017-12-29T01:20:38.008Z,3.58
2017-12-29T01:21:37.711Z,3.53
2017-12-29T01:22:37.687Z,3.58
2017-12-29T01:23:37.665Z,3.61
2017-12-29T01:24:37.902Z,3.57
2017-12-29T01:25:37.883Z,3.6
2017-12-29T01:26:37.603Z,3.58
2017-12-29T01:27:37.842Z,3.6
2017-12-29T01:28:37.819Z,3.61
2017-12-29T01:29:37.528Z,3.61
2017-12-29T01:30:37.516Z,3.62
2017-12-29T01:31:37.747Z,3.6
2017-12-29T01:32:37.726Z,3.6
2017-12-29T01:33:37.435Z,3.53
2017-12-29T01:34:37.414Z,3.62
2017-12-29T01:35:37.393Z,3.6
2017-12-29T01:36:37.373Z,3.58
2017-12-29T01:37:37.082Z,3.6
2017-12-29T01:38:37.324Z,3.53
2017-12-29T01:39:37.296Z,3.6
2017-12-29T01:40:37.284Z,3.54
2017-12-29T01:41:37.516Z,3.58
2017-12-29T01:42:36.966Z,3.5
2017-12-29T01:43:37.203Z,3.58
2017-12-29T01:44:36.919Z,3.49
2017-12-29T01:45:37.421Z,3.5
2017-12-29T01:46:37.399Z,3.58
2017-12-29T01:47:36.863Z,3.58
2017-12-29T01:48:36.832Z,3.52
2017-12-29T01:49:37.068Z,3.49
2017-12-29T01:50:37.318Z,3.54
2017-12-29T01:51:37.292Z,3.43
2017-12-29T01:52:37.005Z,3.5
2017-12-29T01:53:36.717Z,3.5
2017-12-29T01:54:36.956Z,3.46
2017-12-29T01:55:37.195Z,3.47
2017-12-29T01:56:36.908Z,3.46
2017-12-29T01:57:36.887Z,3.39
2017-12-29T01:58:37.133Z,3.43
2017-12-29T01:59:36.845Z,3.4
2017-12-29T02:00:37.079Z,3.44
2017-12-29T02:01:36.795Z,3.3
2017-12-29T02:02:36.519Z,3.24
2017-12-29T02:03:36.747Z,3.3
2017-12-29T02:04:36.735Z,3.27
2017-12-29T02:05:36.969Z,3.31
2017-12-29T02:06:36.685Z,3.23
2017-12-29T02:07:36.917Z,3.25
2017-12-29T02:08:36.634Z,3.21
2017-12-29T02:09:36.616Z,3.24
2017-12-29T02:10:36.323Z,3.24
2017-12-29T02:11:36.568Z,3.23
2017-12-29T02:12:36.548Z,3.16
2017-12-29T02:13:36.516Z,3.15
2017-12-29T02:14:36.755Z,3.18
2017-12-29T02:15:36.474Z,3.16
2017-12-29T02:16:36.446Z,3.15
2017-12-29T02:17:36.162Z,3.16
2017-12-29T02:18:36.400Z,3.23
2017-12-29T02:19:36.111Z,3.21
2017-12-29T02:20:36.093Z,3.2
2017-12-29T02:21:36.603Z,3.18
2017-12-29T02:22:36.574Z,3.15
2017-12-29T02:23:36.556Z,3.1
2017-12-29T02:24:36.531Z,3.24
2017-12-29T02:25:36.500Z,3.06
2017-12-29T02:26:36.227Z,3.06
2017-12-29T02:27:36.191Z,3.09
2017-12-29T02:28:35.908Z,3.05
2017-12-29T02:29:36.411Z,3.02
2017-12-29T02:30:35.864Z,3.03
2017-12-29T02:31:36.372Z,3.02
2017-12-29T02:32:36.082Z,3
2017-12-29T02:33:36.314Z,3.05
2017-12-29T02:34:36.295Z,3
2017-12-29T02:35:36.008Z,3
2017-12-29T02:36:35.732Z,3.02
2017-12-29T02:37:35.966Z,3.02
2017-12-29T02:38:36.226Z,3.03
2017-12-29T02:39:35.652Z,3
2017-12-29T02:40:35.897Z,2.87
2017-12-29T02:41:35.866Z,2.92
2017-12-29T02:42:36.106Z,2.87
2017-12-29T02:43:35.555Z,2.91
2017-12-29T02:44:35.799Z,2.92
2017-12-29T02:45:35.782Z,2.95
2017-12-29T02:46:36.019Z,2.91
2017-12-29T02:47:35.460Z,2.88
2017-12-29T02:48:35.708Z,2.77
2017-12-29T02:49:35.942Z,2.77
2017-12-29T02:50:35.926Z,2.77
2017-12-29T02:51:35.638Z,2.73
2017-12-29T02:52:35.612Z,2.76
2017-12-29T02:53:35.584Z,2.69
2017-12-29T02:54:35.832Z,2.73
2017-12-29T02:55:35.802Z,2.76
2017-12-29T02:56:35.520Z,2.71
2017-12-29T02:57:35.498Z,2.79
2017-12-29T02:58:35.743Z,2.74
2017-12-29T02:59:35.703Z,2.64
2017-12-29T03:00:35.421Z,2.73
2017-12-29T03:01:35.662Z,2.63
2017-12-29T03:02:35.645Z,2.64
2017-12-29T03:03:35.356Z,2.67
2017-12-29T03:04:35.327Z,2.55
2017-12-29T03:05:35.306Z,2.69
2017-12-29T03:06:35.014Z,2.63
2017-12-29T03:07:35.530Z,2.49
2017-12-29T03:08:35.231Z,2.51
2017-12-29T03:09:35.216Z,2.59
2017-12-29T03:10:35.188Z,2.64
2017-12-29T03:11:35.160Z,2.61
2017-12-29T03:12:35.144Z,2.56
2017-12-29T03:13:35.115Z,2.56
2017-12-29T03:14:35.097Z,2.55
2017-12-29T03:15:35.328Z,2.59
2017-12-29T03:16:35.045Z,2.55
2017-12-29T03:17:35.024Z,2.58
2017-12-29T03:18:35.256Z,2.56
2017-12-29T03:19:34.976Z,2.58
2017-12-29T03:20:34.950Z,2.59
2017-12-29T03:21:35.197Z,2.52
2017-12-29T03:22:34.902Z,2.56
2017-12-29T03:23:34.878Z,2.58
2017-12-29T03:24:34.597Z,2.55
2017-12-29T03:25:34.834Z,2.59
2017-12-29T03:26:35.071Z,2.56
2017-12-29T03:27:34.522Z,2.66
2017-12-29T03:28:34.762Z,2.66
2017-12-29T03:29:34.736Z,2.69
2017-12-29T03:30:34.980Z,2.63
2017-12-29T03:31:34.429Z,2.69
2017-12-29T03:32:34.931Z,2.61
2017-12-29T03:33:34.374Z,2.64
2017-12-29T03:34:34.617Z,2.63
2017-12-29T03:35:34.598Z,2.58
2017-12-29T03:36:34.567Z,2.58
2017-12-29T03:37:34.281Z,2.45
2017-12-29T03:38:34.256Z,2.55
2017-12-29T03:39:34.494Z,2.58
2017-12-29T03:40:34.733Z,2.53
2017-12-29T03:41:34.189Z,2.48
2017-12-29T03:42:34.690Z,2.56
2017-12-29T03:43:34.663Z,2.61
2017-12-29T03:44:34.651Z,2.59
2017-12-29T03:45:34.358Z,2.59
2017-12-29T03:46:34.339Z,2.66
2017-12-29T03:47:34.051Z,2.7
2017-12-29T03:48:34.283Z,2.63
2017-12-29T03:49:34.525Z,2.56
2017-12-29T03:50:34.505Z,2.49
2017-12-29T03:51:34.214Z,2.55
2017-12-29T03:52:34.189Z,2.56
2017-12-29T03:53:34.166Z,2.48
2017-12-29T03:54:34.403Z,2.56
2017-12-29T03:55:33.853Z,2.52
2017-12-29T03:56:33.832Z,2.56
2017-12-29T03:57:34.069Z,2.49
2017-12-29T03:58:33.782Z,2.48
2017-12-29T03:59:34.023Z,2.56
2017-12-29T04:00:33.993Z,2.56
2017-12-29T04:01:34.236Z,2.56
2017-12-29T04:02:33.954Z,2.51
2017-12-29T04:03:33.929Z,2.53
2017-12-29T04:04:33.639Z,2.53
2017-12-29T04:05:33.884Z,2.45
2017-12-29T04:06:33.858Z,2.46
2017-12-29T04:07:33.574Z,2.44
2017-12-29T04:08:33.806Z,2.41
2017-12-29T04:09:33.521Z,2.46
2017-12-29T04:10:33.764Z,2.33
2017-12-29T04:11:33.469Z,2.4
2017-12-29T04:12:33.711Z,2.38
2017-12-29T04:13:33.681Z,2.35
2017-12-29T04:14:33.670Z,2.38
2017-12-29T04:15:33.908Z,2.37
2017-12-29T04:16:33.623Z,2.46
2017-12-29T04:17:34.051Z,2.38
2017-12-29T04:18:33.567Z,2.33
2017-12-29T04:19:33.543Z,2.33
2017-12-29T04:20:33.793Z,2.38
2017-12-29T04:21:33.496Z,2.34
2017-12-29T04:22:33.783Z,2.34
2017-12-29T04:23:33.706Z,2.37
2017-12-29T04:24:33.424Z,2.33
2017-12-29T04:25:33.137Z,2.48
2017-12-29T04:26:33.634Z,2.37
2017-12-29T04:27:33.352Z,2.35
2017-12-29T04:28:33.328Z,2.4
2017-12-29T04:29:33.304Z,2.34
2017-12-29T04:30:33.545Z,2.35
2017-12-29T04:31:33.256Z,2.33
2017-12-29T04:32:33.228Z,2.35
2017-12-29T04:33:33.210Z,2.33
2017-12-29T04:34:33.180Z,2.27
2017-12-29T04:35:33.159Z,2.33
2017-12-29T04:36:32.874Z,2.28
2017-12-29T04:37:33.379Z,2.17
2017-12-29T04:38:33.355Z,2.33
2017-12-29T04:39:33.324Z,2.2
2017-12-29T04:40:33.299Z,2.19
2017-12-29T04:41:33.277Z,2.17
2017-12-29T04:42:33.253Z,2.19
2017-12-29T04:43:32.966Z,2.26
2017-12-29T04:44:33.215Z,2.15
2017-12-29T04:45:32.921Z,2.19
2017-12-29T04:46:32.901Z,2.2
2017-12-29T04:47:32.616Z,2.16
2017-12-29T04:48:33.109Z,2.16
2017-12-29T04:49:32.823Z,2.17
2017-12-29T04:50:32.814Z,2.31
2017-12-29T04:51:32.519Z,2.12
2017-12-29T04:52:33.012Z,2.19
2017-12-29T04:53:32.737Z,2.2
2017-12-29T04:54:32.701Z,2.27
2017-12-29T04:55:32.937Z,2.16
2017-12-29T04:56:32.654Z,2.19
2017-12-29T04:57:32.371Z,2.22
2017-12-29T04:58:32.868Z,2.15
2017-12-29T04:59:32.590Z,2.17
2017-12-29T05:00:32.824Z,2.23
2017-12-29T05:01:32.803Z,2.2
2017-12-29T05:02:32.781Z,2.16
2017-12-29T05:03:32.490Z,2.12
2017-12-29T05:04:32.201Z,2.15
2017-12-29T05:05:32.440Z,2.15
2017-12-29T05:06:32.417Z,2.01
2017-12-29T05:07:32.396Z,2.02
2017-12-29T05:08:32.105Z,2.02
2017-12-29T05:09:32.349Z,2.08
2017-12-29T05:10:32.581Z,2.13
2017-12-29T05:11:32.292Z,2.19
2017-12-29T05:12:32.542Z,2.15
2017-12-29T05:13:31.981Z,2.1
2017-12-29T05:14:32.222Z,2.16
2017-12-29T05:15:32.196Z,2.16
2017-12-29T05:16:32.438Z,2.19
2017-12-29T05:17:32.158Z,2.17
2017-12-29T05:18:31.861Z,2.1
2017-12-29T05:19:32.106Z,2.06
2017-12-29T05:20:32.080Z,2.1
2017-12-29T05:21:32.315Z,2.16
2017-12-29T05:22:32.031Z,2.17
2017-12-29T05:23:32.273Z,2.13
2017-12-29T05:24:32.245Z,2.15
2017-12-29T05:25:32.215Z,2.19
2017-12-29T05:26:31.932Z,2.17
2017-12-29T05:27:32.168Z,2.15
2017-12-29T05:28:31.884Z,2.13
2017-12-29T05:29:31.860Z,2.22
2017-12-29T05:30:32.103Z,2.22
2017-12-29T05:31:31.811Z,2.19
2017-12-29T05:32:32.052Z,2.23
2017-12-29T05:33:31.761Z,2.17
2017-12-29T05:34:31.796Z,2.1
2017-12-29T05:35:31.715Z,2.15
2017-12-29T05:36:31.435Z,2.13
2017-12-29T05:37:31.404Z,2.09
2017-12-29T05:38:31.642Z,2.12
2017-12-29T05:39:31.616Z,2.1
2017-12-29T05:40:31.590Z,2.22
2017-12-29T05:41:31.308Z,2.23
2017-12-29T05:42:31.545Z,2.17
2017-12-29T05:43:31.782Z,2.15
2017-12-29T05:44:31.497Z,2.16
2017-12-29T05:45:31.474Z,2.17
2017-12-29T05:46:31.186Z,2.2
2017-12-29T05:47:31.420Z,2.19
2017-12-29T05:48:31.168Z,2.19
2017-12-29T05:49:31.372Z,2.16
2017-12-29T05:50:31.092Z,2.23
2017-12-29T05:51:31.589Z,2.12
2017-12-29T05:52:31.041Z,2.15
2017-12-29T05:53:31.275Z,2.2
2017-12-29T05:54:30.991Z,2.12
2017-12-29T05:55:31.233Z,2.1
2017-12-29T05:56:31.468Z,2.08
2017-12-29T05:57:31.181Z,2.02
2017-12-29T05:58:30.893Z,2.02
2017-12-29T05:59:31.127Z,2.04
2017-12-29T06:00:31.372Z,2.13
2017-12-29T06:01:30.820Z,2.13
2017-12-29T06:02:30.798Z,2.12
2017-12-29T06:03:31.352Z,2.12
2017-12-29T06:04:31.024Z,2.1
2017-12-29T06:05:30.988Z,2.1
2017-12-29T06:06:30.963Z,2.1
2017-12-29T06:07:31.201Z,2.08
2017-12-29T06:08:30.653Z,2.04
2017-12-29T06:09:30.885Z,2.15
2017-12-29T06:10:30.863Z,2.09
2017-12-29T06:11:30.840Z,2.06
2017-12-29T06:12:30.816Z,2.06
2017-12-29T06:13:31.054Z,2.01
2017-12-29T06:14:30.510Z,1.97
2017-12-29T06:15:30.748Z,2.01
2017-12-29T06:16:30.727Z,1.91
2017-12-29T06:17:30.633Z,1.94
2017-12-29T06:18:30.410Z,1.97
2017-12-29T06:19:30.648Z,2.04
2017-12-29T06:20:30.623Z,2.08
2017-12-29T06:21:30.860Z,2.12
2017-12-29T06:22:30.574Z,2.17
2017-12-29T06:23:30.554Z,2.01
2017-12-29T06:24:30.792Z,1.99
2017-12-29T06:25:30.240Z,1.94
2017-12-29T06:26:30.474Z,2.01
2017-12-29T06:27:30.453Z,2.02
2017-12-29T06:28:30.431Z,2.01
2017-12-29T06:29:30.461Z,1.94
2017-12-29T06:30:30.386Z,1.99
2017-12-29T06:31:30.359Z,2.01
2017-12-29T06:32:30.331Z,1.99
2017-12-29T06:33:30.046Z,1.98
2017-12-29T06:34:30.553Z,1.93
2017-12-29T06:35:30.261Z,1.99
2017-12-29T06:36:30.237Z,1.98
2017-12-29T06:37:29.951Z,2.01
2017-12-29T06:38:29.930Z,2.01
2017-12-29T06:39:29.911Z,1.97
2017-12-29T06:40:30.143Z,1.97
2017-12-29T06:41:30.116Z,1.98
2017-12-29T06:42:30.359Z,1.93
2017-12-29T06:43:29.800Z,1.97
2017-12-29T06:44:30.045Z,1.99
2017-12-29T06:45:30.020Z,1.97
2017-12-29T06:46:29.731Z,2.01
2017-12-29T06:47:30.238Z,1.99
2017-12-29T06:48:29.686Z,1.94
2017-12-29T06:49:29.921Z,1.94
2017-12-29T06:50:29.638Z,1.94
2017-12-29T06:51:30.139Z,1.9
2017-12-29T06:52:29.849Z,1.83
2017-12-29T06:53:29.822Z,1.83
2017-12-29T06:54:30.073Z,1.83
2017-12-29T06:55:29.789Z,1.8
2017-12-29T06:56:29.754Z,1.89
2017-12-29T06:57:29.729Z,1.8
2017-12-29T06:58:29.973Z,1.82
2017-12-29T06:59:29.415Z,1.75
2017-12-29T07:00:29.923Z,1.76
2017-12-29T07:01:29.632Z,1.73
2017-12-29T07:02:29.880Z,1.82
2017-12-29T07:03:29.843Z,1.78
2017-12-29T07:04:29.820Z,1.85
2017-12-29T07:05:29.273Z,1.83
2017-12-29T07:06:29.771Z,1.75
2017-12-29T07:07:29.221Z,1.87
2017-12-29T07:08:29.720Z,1.75
2017-12-29T07:09:29.435Z,1.72
2017-12-29T07:10:29.412Z,1.62
2017-12-29T07:11:29.653Z,1.79
2017-12-29T07:12:29.362Z,1.72
2017-12-29T07:13:29.334Z,1.8
2017-12-29T07:14:29.591Z,1.83
2017-12-29T07:15:29.032Z,1.83
2017-12-29T07:16:29.259Z,1.82
2017-12-29T07:17:28.974Z,1.72
2017-12-29T07:18:28.951Z,1.75
2017-12-29T07:19:28.927Z,1.75
2017-12-29T07:20:29.166Z,1.73
2017-12-29T07:21:28.881Z,1.8
2017-12-29T07:22:29.117Z,1.71
2017-12-29T07:23:29.095Z,1.75
2017-12-29T07:24:29.066Z,1.71
2017-12-29T07:25:29.338Z,1.73
2017-12-29T07:26:29.020Z,1.65
2017-12-29T07:27:29.257Z,1.62
2017-12-29T07:28:28.969Z,1.68
2017-12-29T07:29:28.682Z,1.72
2017-12-29T07:30:28.920Z,1.75
2017-12-29T07:31:29.164Z,1.76
2017-12-29T07:32:28.879Z,1.71
2017-12-29T07:33:28.852Z,1.71
2017-12-29T07:34:28.836Z,1.85
2017-12-29T07:35:28.813Z,1.73
2017-12-29T07:36:29.071Z,1.79
2017-12-29T07:37:28.759Z,1.71
2017-12-29T07:38:28.466Z,1.79
2017-12-29T07:39:28.708Z,1.64
2017-12-29T07:40:28.474Z,1.75
2017-12-29T07:41:28.664Z,1.72
2017-12-29T07:42:28.372Z,1.61
2017-12-29T07:43:28.876Z,1.65
2017-12-29T07:44:28.322Z,1.65
2017-12-29T07:45:28.555Z,1.68
2017-12-29T07:46:28.540Z,1.68
2017-12-29T07:47:28.550Z,1.71
2017-12-29T07:48:28.487Z,1.73
2017-12-29T07:49:28.728Z,1.73
2017-12-29T07:50:28.694Z,1.75
2017-12-29T07:51:28.406Z,1.69
2017-12-29T07:52:28.390Z,1.78
2017-12-29T07:53:28.633Z,1.65
2017-12-29T07:54:28.601Z,1.68
2017-12-29T07:55:28.310Z,1.64
2017-12-29T07:56:28.554Z,1.78
2017-12-29T07:57:28.005Z,1.69
2017-12-29T07:58:28.243Z,1.73
2017-12-29T07:59:27.956Z,1.73
2017-12-29T08:00:27.945Z,1.62
2017-12-29T08:01:28.168Z,1.69
2017-12-29T08:02:28.406Z,1.78
2017-12-29T08:03:28.123Z,1.8
2017-12-29T08:04:27.834Z,1.73
2017-12-29T08:05:28.332Z,1.61
2017-12-29T08:06:27.781Z,1.75
2017-12-29T08:07:28.026Z,1.73
2017-12-29T08:08:28.004Z,1.61
2017-12-29T08:09:28.235Z,1.68
2017-12-29T08:10:27.948Z,1.76
2017-12-29T08:11:28.200Z,1.83
2017-12-29T08:12:28.170Z,1.82
2017-12-29T08:13:27.875Z,1.71
2017-12-29T08:14:28.115Z,1.75
2017-12-29T08:15:27.566Z,1.75
2017-12-29T08:16:27.866Z,1.73
2017-12-29T08:17:27.721Z,1.85
2017-12-29T08:18:27.756Z,1.8
2017-12-29T08:19:27.738Z,1.82
2017-12-29T08:20:27.709Z,1.87
2017-12-29T08:21:27.685Z,1.91
2017-12-29T08:22:27.661Z,1.94
2017-12-29T08:23:27.636Z,1.98
2017-12-29T08:24:27.613Z,2.08
2017-12-29T08:25:27.591Z,2.1
2017-12-29T08:26:27.621Z,2.04
2017-12-29T08:27:27.808Z,2.13
2017-12-29T08:28:27.249Z,2.13
2017-12-29T08:29:27.520Z,2.1
2017-12-29T08:30:27.486Z,2.12
2017-12-29T08:31:27.703Z,2.19
2017-12-29T08:32:27.426Z,2.17
2017-12-29T08:33:27.403Z,2.22
2017-12-29T08:34:27.632Z,2.17
2017-12-29T08:35:27.341Z,2.17
2017-12-29T08:36:27.318Z,2.1
2017-12-29T08:37:27.570Z,2.19
2017-12-29T08:38:27.023Z,2.16
2017-12-29T08:39:27.526Z,2.17
2017-12-29T08:40:26.970Z,2.23
2017-12-29T08:41:26.942Z,2.27
2017-12-29T08:42:27.200Z,2.23
2017-12-29T08:43:26.885Z,2.35
2017-12-29T08:44:27.129Z,2.27
2017-12-29T08:45:27.113Z,2.31
2017-12-29T08:46:27.339Z,2.4
2017-12-29T08:47:27.060Z,2.46
2017-12-29T08:48:27.300Z,2.4
2017-12-29T08:49:27.014Z,2.52
2017-12-29T08:50:26.982Z,2.53
2017-12-29T08:51:26.963Z,2.45
2017-12-29T08:52:27.199Z,2.56
2017-12-29T08:53:26.909Z,2.56
2017-12-29T08:54:26.893Z,2.58
2017-12-29T08:55:27.156Z,2.44
2017-12-29T08:56:26.852Z,2.63
2017-12-29T08:57:26.816Z,2.58
2017-12-29T08:58:26.792Z,2.63
2017-12-29T08:59:26.767Z,2.56
2017-12-29T09:00:26.478Z,2.66
2017-12-29T09:01:26.984Z,2.67
2017-12-29T09:02:26.697Z,2.7
2017-12-29T09:03:26.933Z,2.71
2017-12-29T09:04:26.923Z,2.66
2017-12-29T09:05:26.894Z,2.71
2017-12-29T09:06:26.600Z,2.74
2017-12-29T09:07:26.847Z,2.69
2017-12-29T09:08:26.826Z,2.74
2017-12-29T09:09:26.794Z,2.76
2017-12-29T09:10:26.242Z,2.84
2017-12-29T09:11:26.484Z,2.76
2017-12-29T09:12:26.458Z,2.77
2017-12-29T09:13:26.432Z,2.77
2017-12-29T09:14:26.408Z,2.91
2017-12-29T09:15:26.389Z,2.92
2017-12-29T09:16:26.095Z,3
2017-12-29T09:17:26.077Z,2.95
2017-12-29T09:18:26.579Z,2.97
2017-12-29T09:19:26.293Z,2.97
2017-12-29T09:20:26.528Z,3
2017-12-29T09:21:26.244Z,3
2017-12-29T09:22:26.223Z,3.05
2017-12-29T09:23:25.939Z,3.1
2017-12-29T09:24:26.454Z,3.12
2017-12-29T09:25:26.151Z,3.25
2017-12-29T09:26:26.130Z,3.24
2017-12-29T09:27:26.417Z,3.27
2017-12-29T09:28:26.079Z,3.24
2017-12-29T09:29:26.316Z,3.24
2017-12-29T09:30:26.292Z,3.25
2017-12-29T09:31:26.018Z,3.33
2017-12-29T09:32:25.985Z,3.46
2017-12-29T09:33:25.962Z,3.39
2017-12-29T09:34:25.939Z,3.42
2017-12-29T09:35:26.183Z,3.42
2017-12-29T09:36:26.198Z,3.5
2017-12-29T09:37:26.134Z,3.49
2017-12-29T09:38:26.110Z,3.52
2017-12-29T09:39:26.086Z,3.5
2017-12-29T09:40:25.797Z,3.61
2017-12-29T09:41:25.776Z,3.61
2017-12-29T09:42:25.751Z,3.54
2017-12-29T09:43:25.727Z,3.62
2017-12-29T09:44:25.701Z,3.61
2017-12-29T09:45:25.420Z,3.68
2017-12-29T09:46:25.395Z,3.65
2017-12-29T09:47:25.637Z,3.6
2017-12-29T09:48:25.875Z,3.72
2017-12-29T09:49:25.594Z,3.83
2017-12-29T09:50:25.569Z,3.88
2017-12-29T09:51:25.541Z,4
2017-12-29T09:52:25.310Z,3.97
2017-12-29T09:53:25.510Z,4.07
2017-12-29T09:54:25.752Z,4.08
2017-12-29T09:55:25.716Z,4.07
2017-12-29T09:56:25.467Z,4.08
2017-12-29T09:57:25.679Z,4.08
2017-12-29T09:58:25.124Z,4.15
2017-12-29T09:59:25.359Z,4.12
2017-12-29T10:00:25.602Z,4.18
2017-12-29T10:01:25.319Z,4.04
2017-12-29T10:02:25.044Z,4.1
2017-12-29T10:03:25.014Z,4.18
2017-12-29T10:04:25.517Z,4.16
2017-12-29T10:05:25.230Z,4.19
2017-12-29T10:06:24.946Z,4.42
2017-12-29T10:07:25.453Z,4.28
2017-12-29T10:08:25.166Z,4.26
2017-12-29T10:09:25.402Z,4.1
2017-12-29T10:10:25.129Z,4.16
2017-12-29T10:11:25.363Z,4.06
2017-12-29T10:12:25.381Z,4.06
2017-12-29T10:13:25.090Z,4.1
2017-12-29T10:14:25.080Z,4.1
2017-12-29T10:15:24.746Z,4.21
2017-12-29T10:16:25.043Z,4.21
2017-12-29T10:17:25.160Z,4.19
2017-12-29T10:18:24.945Z,4.25
2017-12-29T10:19:24.686Z,4.24
2017-12-29T10:20:25.157Z,4.22
2017-12-29T10:21:25.142Z,4.54
2017-12-29T10:22:24.892Z,4.88
2017-12-29T10:23:25.091Z,5.27
2017-12-29T10:24:24.809Z,5.63
2017-12-29T10:25:24.786Z,5.88
2017-12-29T10:26:24.509Z,5.82
2017-12-29T10:27:24.744Z,5.86
2017-12-29T10:28:24.993Z,5.71
2017-12-29T10:29:24.967Z,5.46
2017-12-29T10:30:24.684Z,5.48
2017-12-29T10:31:24.935Z,5.63
2017-12-29T10:32:24.636Z,5.34
2017-12-29T10:33:24.879Z,5.48
2017-12-29T10:34:24.604Z,5.45
2017-12-29T10:35:24.322Z,5.45
2017-12-29T10:36:24.555Z,5.52
2017-12-29T10:37:24.531Z,5.57
2017-12-29T10:38:24.510Z,5.59
2017-12-29T10:39:24.758Z,5.67
2017-12-29T10:40:24.203Z,5.7
2017-12-29T10:41:24.713Z,5.86
2017-12-29T10:42:24.163Z,5.59
2017-12-29T10:43:24.403Z,5.63
2017-12-29T10:44:24.652Z,5.59
2017-12-29T10:45:24.362Z,5.57
2017-12-29T10:46:24.349Z,5.74
2017-12-29T10:47:24.065Z,5.4
2017-12-29T10:48:24.307Z,5.35
2017-12-29T10:49:24.017Z,5.45
2017-12-29T10:50:24.261Z,5.43
2017-12-29T10:51:24.252Z,5.52
2017-12-29T10:52:24.227Z,5.59
2017-12-29T10:53:24.202Z,5.67
2017-12-29T10:54:24.444Z,5.75
2017-12-29T10:55:23.897Z,6.06
2017-12-29T10:56:23.880Z,6.09
2017-12-29T10:57:24.388Z,6.03
2017-12-29T10:58:24.100Z,5.86
2017-12-29T10:59:24.344Z,6.03
2017-12-29T11:00:24.068Z,6
2017-12-29T11:01:24.042Z,5.95
2017-12-29T11:02:23.761Z,5.96
2017-12-29T11:03:24.020Z,6.09
2017-12-29T11:04:24.243Z,6.3
2017-12-29T11:05:23.964Z,6.36
2017-12-29T11:06:23.948Z,6.56
2017-12-29T11:07:23.919Z,6.5
2017-12-29T11:08:24.167Z,6.46
2017-12-29T11:09:23.885Z,6.56
2017-12-29T11:10:23.602Z,6.32
2017-12-29T11:11:23.855Z,6.44
2017-12-29T11:12:23.822Z,6.38
2017-12-29T11:13:23.543Z,6.06
2017-12-29T11:14:23.819Z,5.92
2017-12-29T11:15:23.505Z,5.86
2017-12-29T11:16:24.018Z,5.74
2017-12-29T11:17:23.989Z,5.81
2017-12-29T11:18:23.715Z,5.67
2017-12-29T11:19:23.429Z,5.78
2017-12-29T11:20:23.669Z,5.6
2017-12-29T11:21:23.651Z,5.91
2017-12-29T11:22:23.633Z,5.88
2017-12-29T11:23:23.874Z,6.03
2017-12-29T11:24:23.339Z,5.81
2017-12-29T11:25:23.576Z,5.96
2017-12-29T11:26:23.551Z,5.96
2017-12-29T11:27:23.530Z,5.88
2017-12-29T11:28:23.509Z,5.78
2017-12-29T11:29:23.502Z,5.82
2017-12-29T11:30:23.477Z,5.74
2017-12-29T11:31:23.794Z,5.82
2017-12-29T11:32:23.698Z,5.82
2017-12-29T11:33:23.415Z,5.86
2017-12-29T11:34:23.723Z,5.83
2017-12-29T11:35:23.371Z,5.78
2017-12-29T11:36:23.094Z,5.85
2017-12-29T11:37:23.596Z,5.82
2017-12-29T11:38:23.576Z,5.71
2017-12-29T11:39:23.033Z,5.75
2017-12-29T11:40:23.535Z,5.82
2017-12-29T11:41:23.251Z,5.86
2017-12-29T11:42:23.497Z,5.78
2017-12-29T11:43:23.213Z,5.7
2017-12-29T11:44:23.188Z,5.73
2017-12-29T11:45:22.915Z,5.78
2017-12-29T11:46:23.159Z,5.74
2017-12-29T11:47:23.130Z,5.74
2017-12-29T11:48:23.124Z,5.7
2017-12-29T11:49:22.827Z,5.67
2017-12-29T11:50:23.086Z,5.55
2017-12-29T11:51:23.053Z,5.41
2017-12-29T11:52:22.768Z,5.45
2017-12-29T11:53:22.749Z,5.45
2017-12-29T11:54:23.260Z,5.38
2017-12-29T11:55:23.232Z,5.38
2017-12-29T11:56:23.209Z,5.52
2017-12-29T11:57:22.925Z,5.43
2017-12-29T11:58:22.909Z,5.34
2017-12-29T11:59:22.882Z,5.31
2017-12-29T12:00:22.598Z,5.3
2017-12-29T12:01:23.103Z,5.31
2017-12-29T12:02:22.558Z,5.28
2017-12-29T12:03:23.065Z,5.35
2017-12-29T12:04:23.053Z,5.34
2017-12-29T12:05:22.771Z,5.4
2017-12-29T12:06:22.738Z,5.32
2017-12-29T12:07:22.984Z,5.37
2017-12-29T12:08:22.987Z,5.41
2017-12-29T12:09:22.422Z,5.45
2017-12-29T12:10:22.392Z,5.45
2017-12-29T12:11:22.638Z,5.43
2017-12-29T12:12:22.613Z,5.43
2017-12-29T12:13:22.594Z,5.49
2017-12-29T12:14:22.837Z,5.41
2017-12-29T12:15:22.823Z,5.43
2017-12-29T12:16:22.539Z,5.53
2017-12-29T12:17:22.712Z,5.48
2017-12-29T12:18:22.764Z,5.5
2017-12-29T12:19:22.216Z,5.59
2017-12-29T12:20:22.720Z,5.57
2017-12-29T12:21:22.787Z,5.59
2017-12-29T12:22:22.146Z,5.57
2017-12-29T12:23:22.383Z,5.49
2017-12-29T12:24:22.107Z,5.46
2017-12-29T12:25:22.345Z,5.46
2017-12-29T12:26:22.593Z,5.46
2017-12-29T12:27:22.041Z,5.43
2017-12-29T12:28:22.576Z,5.43
2017-12-29T12:29:22.534Z,5.4
2017-12-29T12:30:22.504Z,5.34
2017-12-29T12:31:22.494Z,5.32
2017-12-29T12:32:22.470Z,5.25
2017-12-29T12:33:21.920Z,5.32
2017-12-29T12:34:21.901Z,5.25
2017-12-29T12:35:22.399Z,5.28
2017-12-29T12:36:22.386Z,5.23
2017-12-29T12:37:22.098Z,5.31
2017-12-29T12:38:22.352Z,5.25
2017-12-29T12:39:22.318Z,5.3
2017-12-29T12:40:22.044Z,5.27
2017-12-29T12:41:22.278Z,5.31
2017-12-29T12:42:21.993Z,5.27
2017-12-29T12:43:21.980Z,5.28
2017-12-29T12:44:21.950Z,5.31
2017-12-29T12:45:22.204Z,5.27
2017-12-29T12:46:21.907Z,5.25
2017-12-29T12:47:21.619Z,5.27
2017-12-29T12:48:22.134Z,5.16
2017-12-29T12:49:21.849Z,5.22
2017-12-29T12:50:21.823Z,5.22
2017-12-29T12:51:21.540Z,5.13
2017-12-29T12:52:21.781Z,5.16
2017-12-29T12:53:21.759Z,5.2
2017-12-29T12:54:21.740Z,5.17
2017-12-29T12:55:21.987Z,5.19
2017-12-29T12:56:21.699Z,5.17
2017-12-29T12:57:21.415Z,5.16
2017-12-29T12:58:21.653Z,5.23
2017-12-29T12:59:21.634Z,5.13
2017-12-29T13:00:21.877Z,5.14
2017-12-29T13:01:21.588Z,5.16
2017-12-29T13:02:21.570Z,5.17
2017-12-29T13:03:21.554Z,5.13
2017-12-29T13:04:21.786Z,5.16
2017-12-29T13:05:21.240Z,5.1
2017-12-29T13:06:21.750Z,5.12
2017-12-29T13:07:21.725Z,5.07
2017-12-29T13:08:21.443Z,5.1
2017-12-29T13:09:21.424Z,5.12
2017-12-29T13:10:21.455Z,5.07
2017-12-29T13:11:21.378Z,5.09
2017-12-29T13:12:21.623Z,5.01
2017-12-29T13:13:21.071Z,4.92
2017-12-29T13:14:21.311Z,5.02
2017-12-29T13:15:21.294Z,5.05
2017-12-29T13:16:21.268Z,5.04
2017-12-29T13:17:21.518Z,4.98
2017-12-29T13:18:21.495Z,5.05
2017-12-29T13:19:21.469Z,5.04
2017-12-29T13:20:21.192Z,4.99
2017-12-29T13:21:21.156Z,4.98